createdAt,value
2023-07-11T00:00:23.327Z,75.75
2023-07-11T00:01:19.968Z,77.09
2023-07-11T00:02:16.937Z,75.93
2023-07-11T00:03:13.741Z,78.02
2023-07-11T00:04:10.621Z,76.36
2023-07-11T00:05:08.801Z,75.06
2023-07-11T00:06:08.747Z,77.45
2023-07-11T00:07:05.767Z,77.41
2023-07-11T00:08:02.398Z,76.20
2023-07-11T00:08:59.150Z,75.04
2023-07-11T00:09:55.812Z,73.67
2023-07-11T00:10:52.496Z,71.09
2023-07-11T00:11:49.102Z,74.66
2023-07-11T00:12:45.818Z,77.63
2023-07-11T00:13:42.521Z,77.17
2023-07-11T00:14:39.167Z,77.05
2023-07-11T00:15:35.827Z,77.36
2023-07-11T00:16:32.525Z,79.00
2023-07-11T00:17:29.641Z,78.72
2023-07-11T00:18:26.316Z,78.83
2023-07-11T00:19:23.106Z,80.33
2023-07-11T00:20:20.414Z,79.01
2023-07-11T00:21:17.049Z,78.56
2023-07-11T00:22:13.933Z,79.11
2023-07-11T00:23:10.706Z,80.57
2023-07-11T00:24:08.011Z,80.22
2023-07-11T00:25:06.020Z,80.71
2023-07-11T00:26:02.853Z,79.88
2023-07-11T00:26:59.472Z,79.80
2023-07-11T00:27:56.154Z,79.30
2023-07-11T00:28:52.742Z,80.07
2023-07-11T00:29:49.451Z,79.74
2023-07-11T00:30:46.220Z,80.41
2023-07-11T00:31:42.909Z,80.91
2023-07-11T00:32:39.797Z,80.67
2023-07-11T00:33:36.521Z,80.15
2023-07-11T00:34:33.315Z,80.38
2023-07-11T00:35:29.932Z,80.63
2023-07-11T00:36:26.517Z,80.30
2023-07-11T00:37:23.273Z,79.59
2023-07-11T00:38:21.191Z,80.21
2023-07-11T00:39:17.813Z,81.78
2023-07-11T00:40:14.474Z,80.83
2023-07-11T00:41:11.104Z,81.82
2023-07-11T00:42:09.357Z,81.36
2023-07-11T00:43:06.479Z,82.02
2023-07-11T00:44:03.158Z,82.15
2023-07-11T00:45:05.364Z,81.16
2023-07-11T00:46:07.993Z,81.79
2023-07-11T00:47:05.434Z,84.21
2023-07-11T00:48:02.556Z,82.88
2023-07-11T00:49:01.556Z,81.54
2023-07-11T00:50:03.719Z,81.66
2023-07-11T00:51:01.306Z,81.40
2023-07-11T00:52:02.311Z,80.65
2023-07-11T00:52:58.988Z,81.36
2023-07-11T00:53:56.129Z,81.16
2023-07-11T00:54:58.127Z,79.88
2023-07-11T00:55:58.826Z,79.68
2023-07-11T00:56:57.717Z,81.67
2023-07-11T00:57:54.499Z,83.09
2023-07-11T00:58:52.358Z,82.57
2023-07-11T00:59:49.613Z,80.74
2023-07-11T01:00:46.933Z,79.03
2023-07-11T01:01:48.266Z,78.02
2023-07-11T01:02:44.966Z,79.87
2023-07-11T01:03:41.923Z,81.36
2023-07-11T01:04:40.070Z,83.22
2023-07-11T01:05:38.309Z,84.52
2023-07-11T01:06:35.530Z,84.09
2023-07-11T01:07:35.580Z,81.88
2023-07-11T01:08:32.310Z,82.43
2023-07-11T01:09:29.539Z,82.47
2023-07-11T01:10:26.287Z,82.66
2023-07-11T01:11:26.327Z,82.37
2023-07-11T01:12:23.144Z,83.16
2023-07-11T01:13:19.779Z,84.63
2023-07-11T01:14:16.605Z,83.89
2023-07-11T01:15:13.468Z,83.45
2023-07-11T01:16:10.704Z,84.62
2023-07-11T01:17:24.813Z,84.19
2023-07-11T01:18:21.494Z,83.36
2023-07-11T01:19:18.324Z,82.87
2023-07-11T01:20:14.995Z,83.08
2023-07-11T01:21:17.559Z,84.58
2023-07-11T01:22:14.062Z,83.71
2023-07-11T01:23:11.250Z,83.06
2023-07-11T01:24:08.404Z,85.32
2023-07-11T01:25:11.380Z,85.53
2023-07-11T01:26:09.447Z,85.24
2023-07-11T01:27:06.346Z,85.80
2023-07-11T01:28:03.098Z,86.39
2023-07-11T01:29:00.022Z,86.33
2023-07-11T01:29:56.688Z,85.46
2023-07-11T01:30:53.356Z,85.62
2023-07-11T01:31:50.048Z,85.91
2023-07-11T01:32:47.242Z,84.71
2023-07-11T01:33:44.042Z,84.15
2023-07-11T01:34:40.776Z,83.74
2023-07-11T01:35:37.447Z,84.21
2023-07-11T01:36:35.117Z,84.34
2023-07-11T01:37:32.190Z,83.55
2023-07-11T01:38:28.894Z,83.23
2023-07-11T01:39:25.589Z,82.46
2023-07-11T01:40:22.593Z,83.30
2023-07-11T01:41:19.469Z,83.45
2023-07-11T01:42:16.903Z,82.55
2023-07-11T01:43:13.759Z,83.06
2023-07-11T01:44:12.242Z,83.08
2023-07-11T01:45:11.056Z,83.02
2023-07-11T01:46:07.907Z,82.71
2023-07-11T01:47:05.580Z,83.45
2023-07-11T01:48:02.309Z,83.78
2023-07-11T01:48:58.985Z,85.71
2023-07-11T01:49:55.617Z,86.07
2023-07-11T01:50:52.810Z,85.43
2023-07-11T01:51:49.452Z,85.65
2023-07-11T01:52:46.101Z,85.33
2023-07-11T01:53:42.771Z,84.86
2023-07-11T01:54:39.397Z,85.85
2023-07-11T01:55:36.033Z,85.88
2023-07-11T01:56:32.634Z,86.41
2023-07-11T01:57:29.297Z,87.55
2023-07-11T01:58:25.968Z,87.21
2023-07-11T01:59:22.647Z,86.94
2023-07-11T02:00:19.403Z,87.58
2023-07-11T02:01:16.256Z,87.73
2023-07-11T02:02:13.435Z,86.55
2023-07-11T02:03:10.847Z,88.11
2023-07-11T02:04:08.161Z,86.91
2023-07-11T02:05:05.124Z,85.05
2023-07-11T02:06:01.795Z,84.93
2023-07-11T02:06:58.389Z,86.54
2023-07-11T02:07:55.059Z,88.00
2023-07-11T02:08:52.586Z,89.00
2023-07-11T02:09:49.398Z,88.45
2023-07-11T02:10:46.379Z,88.11
2023-07-11T02:11:43.484Z,87.92
2023-07-11T02:12:40.153Z,88.54
2023-07-11T02:13:36.841Z,88.64
2023-07-11T02:14:33.615Z,87.75
2023-07-11T02:15:30.311Z,87.11
2023-07-11T02:16:27.105Z,86.20
2023-07-11T02:17:23.958Z,85.68
2023-07-11T02:18:20.865Z,86.89
2023-07-11T02:19:20.013Z,87.15
2023-07-11T02:20:16.978Z,87.32
2023-07-11T02:21:13.714Z,87.25
2023-07-11T02:22:10.406Z,87.92
2023-07-11T02:23:07.037Z,87.84
2023-07-11T02:24:04.303Z,87.87
2023-07-11T02:25:00.946Z,87.94
2023-07-11T02:25:57.590Z,87.64
2023-07-11T02:26:54.222Z,86.85
2023-07-11T02:27:50.874Z,86.21
2023-07-11T02:28:47.518Z,86.88
2023-07-11T02:29:44.342Z,88.11
2023-07-11T02:30:41.960Z,87.74
2023-07-11T02:31:38.992Z,86.27
2023-07-11T02:32:36.322Z,86.22
2023-07-11T02:33:32.978Z,86.37
2023-07-11T02:34:29.592Z,86.62
2023-07-11T02:35:26.259Z,87.38
2023-07-11T02:36:22.887Z,86.75
2023-07-11T02:37:19.478Z,87.23
2023-07-11T02:38:16.141Z,87.26
2023-07-11T02:39:13.349Z,87.57
2023-07-11T02:40:10.535Z,87.68
2023-07-11T02:41:07.247Z,87.74
2023-07-11T02:42:04.483Z,88.09
2023-07-11T02:43:01.155Z,88.29
2023-07-11T02:43:58.719Z,87.61
2023-07-11T02:44:55.385Z,87.84
2023-07-11T02:45:52.591Z,87.31
2023-07-11T02:46:49.428Z,86.60
2023-07-11T02:47:46.062Z,86.48
2023-07-11T02:48:43.995Z,86.15
2023-07-11T02:49:42.307Z,86.60
2023-07-11T02:50:39.054Z,86.94
2023-07-11T02:51:40.641Z,87.59
2023-07-11T02:52:38.148Z,86.15
2023-07-11T02:53:34.801Z,86.04
2023-07-11T02:54:31.448Z,88.61
2023-07-11T02:55:28.053Z,89.12
2023-07-11T02:56:24.826Z,88.92
2023-07-11T02:57:21.560Z,88.87
2023-07-11T02:58:18.310Z,88.84
2023-07-11T02:59:14.955Z,89.73
2023-07-11T03:00:12.539Z,89.04
2023-07-11T03:01:09.527Z,88.95
2023-07-11T03:02:06.559Z,88.19
2023-07-11T03:03:04.041Z,84.84
2023-07-11T03:04:01.026Z,85.47
2023-07-11T03:04:57.753Z,84.65
2023-07-11T03:05:55.767Z,83.24
2023-07-11T03:06:57.559Z,83.59
2023-07-11T03:07:54.248Z,85.82
2023-07-11T03:08:50.910Z,87.49
2023-07-11T03:09:47.584Z,89.13
2023-07-11T03:10:44.658Z,89.14
2023-07-11T03:11:42.703Z,88.49
2023-07-11T03:12:39.642Z,87.93
2023-07-11T03:13:36.324Z,88.63
2023-07-11T03:14:33.017Z,90.18
2023-07-11T03:15:29.733Z,89.24
2023-07-11T03:16:26.476Z,89.44
2023-07-11T03:17:23.418Z,89.41
2023-07-11T03:18:20.261Z,89.42
2023-07-11T03:19:16.934Z,89.82
2023-07-11T03:20:13.565Z,90.61
2023-07-11T03:21:10.179Z,89.57
2023-07-11T03:22:06.986Z,90.15
2023-07-11T03:23:03.772Z,90.18
2023-07-11T03:24:00.375Z,90.48
2023-07-11T03:24:57.030Z,90.57
2023-07-11T03:25:54.241Z,90.19
2023-07-11T03:26:50.975Z,90.03
2023-07-11T03:27:47.664Z,90.51
2023-07-11T03:28:44.425Z,89.99
2023-07-11T03:29:41.248Z,90.12
2023-07-11T03:30:37.943Z,90.74
2023-07-11T03:31:34.704Z,90.63
2023-07-11T03:32:32.294Z,91.27
2023-07-11T03:33:28.951Z,90.60
2023-07-11T03:34:25.617Z,90.22
2023-07-11T03:35:22.290Z,89.92
2023-07-11T03:36:20.076Z,90.51
2023-07-11T03:37:16.766Z,90.63
2023-07-11T03:38:13.390Z,90.83
2023-07-11T03:39:10.070Z,90.79
2023-07-11T03:40:07.373Z,90.55
2023-07-11T03:41:04.907Z,90.47
2023-07-11T03:42:01.578Z,91.04
2023-07-11T03:42:58.360Z,90.39
2023-07-11T03:43:55.033Z,90.03
2023-07-11T03:44:51.647Z,90.38
2023-07-11T03:45:50.221Z,90.79
2023-07-11T03:46:47.494Z,91.52
2023-07-11T03:47:44.273Z,90.69
2023-07-11T03:48:40.929Z,90.64
2023-07-11T03:49:37.782Z,90.89
2023-07-11T03:50:34.442Z,90.90
2023-07-11T03:51:31.165Z,89.87
2023-07-11T03:52:27.805Z,90.30
2023-07-11T03:53:25.578Z,92.22
2023-07-11T03:54:24.729Z,92.07
2023-07-11T03:55:21.451Z,91.82
2023-07-11T03:56:18.174Z,91.70
2023-07-11T03:57:14.770Z,91.91
2023-07-11T03:58:11.983Z,91.25
2023-07-11T03:59:08.686Z,90.88
2023-07-11T04:00:06.002Z,91.53
2023-07-11T04:01:02.654Z,92.04
2023-07-11T04:01:59.321Z,92.98
2023-07-11T04:02:56.074Z,94.07
2023-07-11T04:03:53.592Z,94.45
2023-07-11T04:04:50.360Z,94.95
2023-07-11T04:05:47.315Z,94.23
2023-07-11T04:06:44.012Z,93.54
2023-07-11T04:07:40.682Z,90.90
2023-07-11T04:08:37.604Z,90.47
2023-07-11T04:09:34.446Z,89.91
2023-07-11T04:10:32.433Z,89.05
2023-07-11T04:11:29.106Z,90.34
2023-07-11T04:12:25.780Z,91.38
2023-07-11T04:13:22.631Z,92.45
2023-07-11T04:14:19.400Z,92.31
2023-07-11T04:15:16.229Z,91.83
2023-07-11T04:16:12.922Z,91.36
2023-07-11T04:17:09.660Z,91.50
2023-07-11T04:18:06.554Z,90.04
2023-07-11T04:19:03.816Z,89.88
2023-07-11T04:20:00.647Z,91.67
2023-07-11T04:20:57.382Z,92.57
2023-07-11T04:21:54.087Z,91.48
2023-07-11T04:22:50.769Z,91.20
2023-07-11T04:23:48.742Z,91.42
2023-07-11T04:24:45.391Z,90.03
2023-07-11T04:25:42.069Z,88.64
2023-07-11T04:26:38.930Z,88.34
2023-07-11T04:27:36.718Z,87.71
2023-07-11T04:28:33.346Z,87.63
2023-07-11T04:29:30.019Z,86.99
2023-07-11T04:30:26.663Z,86.38
2023-07-11T04:31:25.435Z,86.57
2023-07-11T04:32:22.617Z,87.45
2023-07-11T04:33:19.457Z,88.69
2023-07-11T04:34:16.270Z,88.25
2023-07-11T04:35:15.843Z,86.83
2023-07-11T04:36:15.353Z,85.39
2023-07-11T04:37:12.049Z,83.27
2023-07-11T04:38:08.723Z,82.74
2023-07-11T04:39:05.393Z,80.14
2023-07-11T04:40:02.058Z,79.19
2023-07-11T04:41:03.627Z,79.58
2023-07-11T04:42:00.284Z,82.62
2023-07-11T04:42:59.647Z,82.77
2023-07-11T04:43:56.319Z,83.17
2023-07-11T04:44:52.953Z,81.89
2023-07-11T04:45:49.568Z,81.66
2023-07-11T04:46:46.325Z,82.10
2023-07-11T04:47:44.424Z,82.86
2023-07-11T04:48:43.234Z,83.21
2023-07-11T04:49:39.970Z,84.11
2023-07-11T04:50:36.640Z,84.35
2023-07-11T04:51:33.327Z,84.53
2023-07-11T04:52:30.034Z,84.51
2023-07-11T04:53:27.857Z,83.08
2023-07-11T04:54:26.870Z,83.38
2023-07-11T04:55:24.040Z,83.60
2023-07-11T04:56:20.783Z,82.72
2023-07-11T04:57:17.493Z,83.42
2023-07-11T04:58:14.139Z,84.44
2023-07-11T04:59:10.792Z,83.91
2023-07-11T05:00:08.082Z,84.18
2023-07-11T05:01:11.429Z,83.40
2023-07-11T05:02:08.265Z,82.06
2023-07-11T05:03:05.021Z,81.42
2023-07-11T05:04:01.868Z,81.78
2023-07-11T05:04:58.528Z,82.34
2023-07-11T05:05:55.764Z,82.19
2023-07-11T05:06:52.490Z,82.05
2023-07-11T05:07:49.236Z,82.26
2023-07-11T05:08:45.881Z,81.76
2023-07-11T05:09:57.110Z,80.75
2023-07-11T05:11:02.635Z,81.05
2023-07-11T05:12:01.505Z,82.04
2023-07-11T05:12:58.115Z,81.46
2023-07-11T05:13:54.828Z,81.94
2023-07-11T05:14:51.502Z,81.94
2023-07-11T05:15:48.223Z,81.28
2023-07-11T05:16:44.990Z,81.04
2023-07-11T05:17:41.657Z,81.78
2023-07-11T05:18:44.764Z,81.57
2023-07-11T05:19:42.192Z,80.28
2023-07-11T05:20:39.693Z,79.70
2023-07-11T05:21:36.321Z,79.29
2023-07-11T05:22:32.965Z,79.48
2023-07-11T05:23:31.449Z,78.87
2023-07-11T05:24:28.233Z,77.86
2023-07-11T05:25:24.893Z,78.06
2023-07-11T05:26:21.537Z,78.78
2023-07-11T05:27:18.202Z,78.60
2023-07-11T05:28:15.745Z,77.88
2023-07-11T05:29:12.396Z,78.00
2023-07-11T05:30:09.973Z,77.35
2023-07-11T05:31:08.060Z,77.41
2023-07-11T05:32:05.245Z,77.57
2023-07-11T05:33:02.076Z,76.79
2023-07-11T05:33:58.889Z,76.85
2023-07-11T05:34:55.978Z,77.26
2023-07-11T05:36:26.621Z,75.18
2023-07-11T05:37:23.364Z,75.63
2023-07-11T05:38:19.943Z,77.49
2023-07-11T05:39:17.162Z,76.83
2023-07-11T05:40:15.013Z,77.04
2023-07-11T05:41:11.624Z,77.03
2023-07-11T05:42:08.315Z,75.29
2023-07-11T05:43:04.989Z,76.70
2023-07-11T05:44:02.486Z,75.67
2023-07-11T05:44:59.168Z,75.35
2023-07-11T05:45:55.854Z,75.60
2023-07-11T05:46:52.697Z,74.53
2023-07-11T05:47:49.346Z,73.75
2023-07-11T05:48:45.966Z,73.41
2023-07-11T05:49:44.842Z,73.81
2023-07-11T05:50:41.432Z,73.93
2023-07-11T05:51:38.200Z,72.50
2023-07-11T05:52:34.895Z,74.75
2023-07-11T05:53:31.634Z,73.72
2023-07-11T05:54:28.192Z,76.09
2023-07-11T05:55:24.885Z,77.06
2023-07-11T05:56:22.037Z,75.23
2023-07-11T05:57:18.664Z,74.96
2023-07-11T05:58:15.267Z,75.50
2023-07-11T05:59:11.900Z,74.30
2023-07-11T06:00:10.836Z,75.43
2023-07-11T06:01:07.654Z,76.18
2023-07-11T06:02:04.733Z,75.22
2023-07-11T06:03:02.737Z,73.57
2023-07-11T06:04:14.111Z,73.97
2023-07-11T06:05:10.933Z,73.17
2023-07-11T06:06:10.117Z,72.67
2023-07-11T06:07:06.970Z,74.22
2023-07-11T06:08:03.761Z,75.02
2023-07-11T06:09:00.356Z,75.10
2023-07-11T06:09:57.533Z,73.89
2023-07-11T06:10:58.574Z,74.29
2023-07-11T06:11:55.440Z,75.76
2023-07-11T06:12:52.214Z,73.32
2023-07-11T06:13:48.921Z,70.07
2023-07-11T06:14:45.588Z,68.19
2023-07-11T06:15:42.650Z,67.92
2023-07-11T06:16:40.996Z,69.77
2023-07-11T06:17:37.746Z,70.00
2023-07-11T06:18:37.155Z,71.86
2023-07-11T06:19:33.808Z,71.29
2023-07-11T06:20:30.502Z,70.98
2023-07-11T06:21:27.216Z,69.73
2023-07-11T06:22:24.224Z,71.21
2023-07-11T06:23:21.139Z,70.36
2023-07-11T06:24:17.849Z,70.10
2023-07-11T06:25:14.545Z,70.12
2023-07-11T06:26:11.513Z,70.67
2023-07-11T06:27:08.149Z,71.18
2023-07-11T06:28:05.016Z,72.08
2023-07-11T06:29:01.622Z,70.27
2023-07-11T06:29:58.338Z,69.93
2023-07-11T06:31:02.064Z,72.03
2023-07-11T06:31:59.108Z,70.98
2023-07-11T06:32:55.799Z,70.53
2023-07-11T06:33:52.623Z,71.15
2023-07-11T06:34:49.223Z,71.21
2023-07-11T06:35:52.233Z,70.63
2023-07-11T06:36:48.976Z,72.10
2023-07-11T06:37:45.543Z,72.36
2023-07-11T06:38:42.239Z,71.82
2023-07-11T06:39:39.313Z,69.71
2023-07-11T06:40:38.829Z,68.90
2023-07-11T06:41:36.530Z,69.21
2023-07-11T06:42:33.292Z,69.47
2023-07-11T06:43:31.073Z,70.43
2023-07-11T06:44:27.834Z,71.34
2023-07-11T06:45:26.178Z,68.29
2023-07-11T06:46:25.346Z,67.58
2023-07-11T06:47:22.019Z,66.59
2023-07-11T06:48:19.849Z,68.03
2023-07-11T06:49:16.562Z,68.78
2023-07-11T06:50:13.364Z,66.17
2023-07-11T06:51:11.241Z,65.63
2023-07-11T06:52:08.299Z,65.10
2023-07-11T06:53:04.967Z,62.62
2023-07-11T06:54:01.685Z,63.88
2023-07-11T06:54:58.393Z,64.25
2023-07-11T06:55:55.362Z,63.26
2023-07-11T06:56:53.485Z,62.07
2023-07-11T06:57:50.205Z,63.17
2023-07-11T06:58:46.938Z,62.18
2023-07-11T06:59:43.572Z,62.24
2023-07-11T07:00:40.206Z,63.20
2023-07-11T07:01:38.819Z,63.28
2023-07-11T07:02:35.966Z,63.07
2023-07-11T07:03:34.001Z,62.77
2023-07-11T07:04:30.902Z,63.96
2023-07-11T07:05:27.648Z,63.43
2023-07-11T07:06:24.407Z,64.18
2023-07-11T07:07:20.995Z,64.88
2023-07-11T07:08:19.378Z,64.59
2023-07-11T07:09:16.064Z,62.16
2023-07-11T07:10:12.856Z,60.86
2023-07-11T07:11:10.822Z,61.43
2023-07-11T07:12:07.698Z,61.83
2023-07-11T07:13:04.360Z,63.56
2023-07-11T07:14:06.045Z,63.82
2023-07-11T07:15:03.571Z,62.53
2023-07-11T07:16:01.554Z,62.96
2023-07-11T07:16:58.171Z,63.79
2023-07-11T07:17:54.847Z,63.01
2023-07-11T07:18:51.664Z,63.27
2023-07-11T07:19:48.310Z,61.60
2023-07-11T07:21:48.647Z,61.90
2023-07-11T07:22:45.240Z,63.90
2023-07-11T07:23:42.170Z,58.49
2023-07-11T07:24:38.885Z,59.48
2023-07-11T07:25:35.586Z,61.84
2023-07-11T07:26:32.274Z,60.16
2023-07-11T07:27:29.544Z,60.43
2023-07-11T07:28:28.329Z,60.92
2023-07-11T07:29:26.378Z,62.00
2023-07-11T07:30:23.027Z,60.75
2023-07-11T07:31:20.031Z,59.21
2023-07-11T07:32:16.941Z,61.17
2023-07-11T07:33:13.790Z,61.90
2023-07-11T07:34:10.484Z,61.28
2023-07-11T07:35:07.364Z,61.35
2023-07-11T07:36:06.821Z,61.26
2023-07-11T07:37:03.574Z,62.11
2023-07-11T07:38:00.313Z,60.91
2023-07-11T07:38:56.997Z,61.17
2023-07-11T07:39:54.085Z,61.65
2023-07-11T07:40:54.135Z,61.10
2023-07-11T07:41:50.821Z,62.02
2023-07-11T07:42:47.735Z,61.32
2023-07-11T07:43:44.582Z,62.75
2023-07-11T07:44:41.334Z,60.22
2023-07-11T07:45:38.036Z,60.69
2023-07-11T07:46:34.730Z,63.34
2023-07-11T07:47:31.510Z,62.60
2023-07-11T07:48:28.911Z,63.55
2023-07-11T07:49:25.539Z,62.83
2023-07-11T07:50:22.604Z,61.13
2023-07-11T07:51:20.537Z,61.68
2023-07-11T07:52:17.223Z,61.77
2023-07-11T07:53:15.175Z,60.62
2023-07-11T07:54:11.817Z,62.16
2023-07-11T07:55:09.084Z,59.83
2023-07-11T07:56:11.462Z,60.47
2023-07-11T07:57:07.972Z,59.59
2023-07-11T07:58:04.603Z,60.91
2023-07-11T07:59:01.346Z,60.63
2023-07-11T07:59:57.972Z,59.98
2023-07-11T08:00:54.611Z,61.33
2023-07-11T08:01:51.267Z,58.67
2023-07-11T08:02:48.084Z,60.60
2023-07-11T08:03:45.469Z,61.83
2023-07-11T08:04:42.575Z,63.00
2023-07-11T08:05:39.420Z,60.75
2023-07-11T08:06:36.651Z,61.48
2023-07-11T08:07:33.301Z,60.62
2023-07-11T08:08:30.168Z,60.70
2023-07-11T08:09:26.928Z,59.70
2023-07-11T08:10:23.617Z,61.73
2023-07-11T08:11:22.847Z,61.36
2023-07-11T08:12:19.539Z,61.49
2023-07-11T08:13:16.308Z,61.18
2023-07-11T08:14:13.140Z,61.62
2023-07-11T08:15:12.684Z,58.56
2023-07-11T08:16:19.286Z,60.11
2023-07-11T08:17:26.034Z,59.95
2023-07-11T08:18:23.289Z,58.36
2023-07-11T08:19:19.873Z,60.31
2023-07-11T08:20:16.694Z,58.82
2023-07-11T08:21:13.389Z,59.58
2023-07-11T08:22:10.165Z,60.49
2023-07-11T08:23:06.927Z,59.72
2023-07-11T08:24:06.268Z,58.88
2023-07-11T08:25:03.590Z,61.51
2023-07-11T08:26:00.230Z,59.32
2023-07-11T08:26:56.999Z,57.96
2023-07-11T08:27:53.704Z,56.29
2023-07-11T08:28:51.942Z,57.47
2023-07-11T08:29:48.684Z,57.07
2023-07-11T08:30:45.544Z,55.96
2023-07-11T08:31:42.385Z,58.11
2023-07-11T08:32:42.203Z,57.33
2023-07-11T08:33:40.392Z,52.88
2023-07-11T08:34:37.447Z,55.64
2023-07-11T08:35:34.277Z,55.88
2023-07-11T08:36:31.483Z,57.24
2023-07-11T08:37:28.235Z,55.94
2023-07-11T08:38:24.909Z,56.06
2023-07-11T08:39:22.574Z,56.76
2023-07-11T08:40:31.352Z,57.13
2023-07-11T08:41:53.333Z,55.79
2023-07-11T08:42:50.131Z,55.98
2023-07-11T08:43:49.690Z,54.34
2023-07-11T08:45:15.665Z,53.29
2023-07-11T08:46:15.613Z,53.39
2023-07-11T08:47:25.093Z,52.98
2023-07-11T08:48:28.356Z,52.79
2023-07-11T08:49:37.749Z,54.17
2023-07-11T08:50:41.112Z,54.79
2023-07-11T08:51:45.005Z,53.88
2023-07-11T08:52:44.540Z,54.20
2023-07-11T08:53:46.846Z,51.79
2023-07-11T08:55:01.657Z,51.43
2023-07-11T08:56:08.298Z,53.97
2023-07-11T08:57:05.337Z,53.10
2023-07-11T08:58:30.428Z,52.75
2023-07-11T08:59:41.886Z,54.17
2023-07-11T09:00:39.670Z,50.63
2023-07-11T09:01:51.135Z,52.01
2023-07-11T09:03:02.281Z,51.97
2023-07-11T09:04:00.920Z,51.97
2023-07-11T09:04:58.549Z,53.31
2023-07-11T09:06:08.363Z,53.42
2023-07-11T09:07:22.104Z,54.07
2023-07-11T09:08:21.125Z,51.69
2023-07-11T09:09:17.988Z,52.30
2023-07-11T09:10:46.363Z,52.54
2023-07-11T09:11:57.808Z,51.77
2023-07-11T09:13:15.679Z,50.01
2023-07-11T09:14:37.175Z,51.09
2023-07-11T09:15:55.431Z,52.01
2023-07-11T09:17:02.168Z,51.34
2023-07-11T09:18:44.339Z,51.17
2023-07-11T09:20:18.269Z,51.46
2023-07-11T09:21:23.801Z,51.10
2023-07-11T09:22:35.794Z,50.00
2023-07-11T09:23:44.787Z,49.59
2023-07-11T09:25:08.366Z,49.13
2023-07-11T09:26:09.145Z,48.33
2023-07-11T09:27:24.218Z,48.39
2023-07-11T09:28:28.001Z,48.03
2023-07-11T09:29:24.667Z,48.54
2023-07-11T09:30:26.375Z,50.99
2023-07-11T09:31:23.800Z,49.68
2023-07-11T09:32:21.052Z,49.39
2023-07-11T09:33:21.894Z,49.32
2023-07-11T09:34:27.357Z,47.84
2023-07-11T09:35:31.196Z,46.70
2023-07-11T09:36:33.518Z,46.60
2023-07-11T09:37:35.014Z,45.41
2023-07-11T09:38:44.779Z,46.83
2023-07-11T09:39:50.533Z,47.24
2023-07-11T09:40:58.243Z,43.45
2023-07-11T09:42:17.722Z,46.94
2023-07-11T09:43:14.732Z,44.95
2023-07-11T09:44:12.241Z,44.18
2023-07-11T09:45:14.992Z,45.82
2023-07-11T09:46:22.134Z,42.96
2023-07-11T09:47:19.522Z,44.76
2023-07-11T09:48:32.362Z,46.48
2023-07-11T09:49:32.289Z,45.92
2023-07-11T09:50:40.876Z,46.10
2023-07-11T09:51:54.288Z,44.90
2023-07-11T09:52:52.757Z,44.71
2023-07-11T09:53:49.422Z,45.57
2023-07-11T09:55:50.064Z,43.97
2023-07-11T09:56:51.645Z,44.86
2023-07-11T09:57:51.029Z,44.44
2023-07-11T09:58:51.296Z,45.31
2023-07-11T10:01:22.783Z,44.69
2023-07-11T10:02:19.550Z,44.04
2023-07-11T10:03:18.496Z,43.91
2023-07-11T10:04:23.569Z,44.15
2023-07-11T10:05:24.203Z,42.54
2023-07-11T10:07:35.615Z,43.09
2023-07-11T10:08:37.344Z,42.89
2023-07-11T10:09:38.415Z,44.94
2023-07-11T10:10:35.066Z,45.21
2023-07-11T10:11:31.795Z,44.12
2023-07-11T10:12:29.551Z,43.67
2023-07-11T10:13:37.922Z,45.32
2023-07-11T10:14:43.603Z,44.68
2023-07-11T10:15:40.216Z,44.69
2023-07-11T10:16:36.858Z,44.30
2023-07-11T10:17:36.172Z,45.50
2023-07-11T10:18:36.760Z,43.41
2023-07-11T10:19:34.289Z,43.40
2023-07-11T10:20:32.316Z,43.99
2023-07-11T10:21:40.365Z,41.45
2023-07-11T10:22:38.616Z,40.69
2023-07-11T10:23:36.796Z,39.95
2023-07-11T10:24:39.056Z,39.69
2023-07-11T10:25:35.714Z,39.35
2023-07-11T10:26:39.558Z,40.48
2023-07-11T10:27:38.305Z,41.91
2023-07-11T10:28:39.829Z,42.27
2023-07-11T10:29:43.631Z,43.76
2023-07-11T10:30:41.713Z,44.95
2023-07-11T10:32:06.843Z,45.07
2023-07-11T10:33:33.576Z,45.78
2023-07-11T10:34:38.454Z,46.59
2023-07-11T10:35:38.303Z,45.52
2023-07-11T10:36:56.450Z,43.50
2023-07-11T10:37:58.183Z,43.95
2023-07-11T10:39:00.358Z,41.55
2023-07-11T10:40:05.505Z,40.19
2023-07-11T10:41:04.621Z,41.18
2023-07-11T10:42:13.038Z,42.67
2023-07-11T10:43:18.582Z,40.76
2023-07-11T10:44:20.333Z,39.59
2023-07-11T10:45:24.494Z,40.48
2023-07-11T10:46:50.329Z,40.63
2023-07-11T10:47:57.156Z,40.66
2023-07-11T10:48:58.089Z,41.24
2023-07-11T10:49:58.054Z,41.77
2023-07-11T10:51:27.515Z,40.29
2023-07-11T10:52:28.740Z,42.68
2023-07-11T10:53:25.348Z,39.40
2023-07-11T10:54:25.867Z,39.40
2023-07-11T10:55:31.113Z,40.36
2023-07-11T10:56:28.145Z,40.29
2023-07-11T10:57:46.545Z,41.05
2023-07-11T10:58:43.258Z,41.00
2023-07-11T10:59:39.942Z,39.31
2023-07-11T11:00:59.656Z,41.07
2023-07-11T11:02:22.566Z,41.89
2023-07-11T11:03:23.329Z,41.11
2023-07-11T11:04:59.458Z,37.66
2023-07-11T11:06:12.524Z,38.91
2023-07-11T11:07:27.449Z,40.06
2023-07-11T11:08:47.717Z,40.48
2023-07-11T11:09:55.028Z,42.35
2023-07-11T11:11:19.324Z,45.38
2023-07-11T11:12:35.558Z,41.89
2023-07-11T11:13:38.838Z,40.98
2023-07-11T11:14:57.089Z,41.22
2023-07-11T11:15:57.718Z,42.52
2023-07-11T11:17:27.531Z,43.48
2023-07-11T11:18:30.122Z,42.14
2023-07-11T11:19:30.388Z,42.85
2023-07-11T11:21:18.358Z,42.14
2023-07-11T11:22:26.574Z,41.27
2023-07-11T11:23:41.343Z,41.05
2023-07-11T11:24:58.443Z,41.08
2023-07-11T11:26:16.170Z,40.78
2023-07-11T11:27:15.958Z,41.46
2023-07-11T11:28:18.885Z,40.96
2023-07-11T11:29:40.830Z,41.99
2023-07-11T11:30:43.995Z,40.60
2023-07-11T11:32:01.997Z,41.14
2023-07-11T11:33:24.944Z,40.39
2023-07-11T11:34:37.311Z,41.22
2023-07-11T11:36:10.420Z,41.84
2023-07-11T11:37:28.693Z,41.50
2023-07-11T11:38:48.067Z,40.99
2023-07-11T11:39:48.149Z,39.81
2023-07-11T11:40:52.182Z,40.30
2023-07-11T11:41:59.399Z,38.84
2023-07-11T11:43:02.357Z,39.95
2023-07-11T11:48:20.929Z,39.34
2023-07-11T11:51:31.795Z,39.04
2023-07-11T11:52:44.784Z,39.75
2023-07-11T11:53:45.588Z,38.48
2023-07-11T11:54:48.513Z,38.56
2023-07-11T11:56:20.347Z,36.46
2023-07-11T11:57:34.513Z,38.74
2023-07-11T11:58:33.775Z,38.32
2023-07-11T11:59:32.168Z,38.78
2023-07-11T12:00:51.536Z,38.59
2023-07-11T12:01:54.407Z,37.38
2023-07-11T12:02:51.436Z,40.17
2023-07-11T12:03:48.400Z,38.55
2023-07-11T12:05:19.314Z,40.01
2023-07-11T12:06:35.947Z,39.79
2023-07-11T12:07:42.142Z,37.86
2023-07-11T12:08:39.868Z,39.82
2023-07-11T12:09:54.720Z,38.34
2023-07-11T12:11:19.309Z,37.07
2023-07-11T12:12:19.935Z,39.81
2023-07-11T12:13:26.865Z,38.78
2023-07-11T12:14:29.356Z,38.22
2023-07-11T12:15:33.196Z,39.51
2023-07-11T12:16:41.506Z,38.78
2023-07-11T12:17:39.806Z,37.62
2023-07-11T12:18:47.284Z,38.12
2023-07-11T12:19:58.208Z,38.46
2023-07-11T12:21:18.485Z,41.09
2023-07-11T12:22:15.208Z,40.02
2023-07-11T12:23:26.141Z,38.80
2023-07-11T12:25:14.015Z,38.48
2023-07-11T12:26:18.168Z,38.68
2023-07-11T12:27:17.508Z,38.88
2023-07-11T12:28:24.766Z,40.12
2023-07-11T12:29:40.976Z,39.64
2023-07-11T12:30:41.945Z,40.81
2023-07-11T12:31:38.613Z,38.77
2023-07-11T12:32:35.342Z,38.27
2023-07-11T12:33:37.738Z,37.02
2023-07-11T12:34:34.242Z,38.51
2023-07-11T12:35:37.012Z,40.21
2023-07-11T12:36:59.957Z,40.75
2023-07-11T12:38:02.561Z,41.19
2023-07-11T12:39:07.819Z,39.13
2023-07-11T12:40:19.995Z,41.73
2023-07-11T12:41:42.835Z,42.96
2023-07-11T12:42:55.474Z,39.86
2023-07-11T12:43:54.400Z,39.38
2023-07-11T12:44:51.097Z,42.01
2023-07-11T12:45:57.042Z,39.85
2023-07-11T12:46:53.985Z,39.91
2023-07-11T12:48:01.105Z,38.31
2023-07-11T12:48:57.930Z,38.54
2023-07-11T12:49:55.279Z,38.48
2023-07-11T12:50:56.968Z,39.14
2023-07-11T12:52:04.522Z,39.44
2023-07-11T12:53:03.551Z,40.50
2023-07-11T12:54:15.099Z,39.08
2023-07-11T12:55:12.711Z,39.43
2023-07-11T12:56:14.410Z,37.56
2023-07-11T12:57:20.323Z,39.14
2023-07-11T12:58:21.974Z,38.89
2023-07-11T12:59:26.305Z,38.42
2023-07-11T13:00:26.589Z,39.82
2023-07-11T13:01:23.977Z,39.60
2023-07-11T13:02:31.573Z,40.11
2023-07-11T13:03:40.184Z,39.72
2023-07-11T13:04:52.877Z,39.89
2023-07-11T13:05:58.337Z,37.50
2023-07-11T13:07:25.296Z,39.20
2023-07-11T13:08:22.867Z,38.49